Terminal Aerodrome Forecast
Issued by NWS

Home | Current Version | Previous Version | Text Only | Print | Product List | Glossary On
Versions: 1 2 3 4 5 6 7 8 9 10 11 12 13 14 15 16 17 18 19 20 21 22 23 24
000
FTUS44 KOUN 310606 RRA
TAFCSM
TAF
KCSM 310606Z 3106/0106 16010KT P6SM BKN250
     FM311000 17010KT P6SM BKN020 PROB30 3115/3121 4SM -TSRA
      OVC015CB
     FM010100 06006KT P6SM OVC030=

USA.gov is the U.S. government's official web portal to all federal, state and local government web resources and services.